Report created: 2012-09-05T20:23:51+03:00

18th EUROPEAN HANGGLIDING CHAMPIONSHIP

2012-08-26 to 2012-09-08

2012-09-05 Task 7

Race to Goal 70,9 km

Provisional

No Dist. Id Radius
(meters)
Open Close Coordinates
1 0,0 km D00175 400 13:45 15:45 Lat: 38.66815 Lon: 35.54604
2 SS 5,6 km D00175 6000 15:10 18:00 Lat: 38.66815 Lon: 35.54604
3 19,7 km B09161 400 15:15 18:00 Lat: 38.64343 Lon: 35.77999
4 32,7 km B11151 400 15:15 18:00 Lat: 38.57543 Lon: 35.9039
5 57,4 km B24211 400 15:15 18:00 Lat: 38.38358 Lon: 36.05162
6 ES 70,3 km A33135 1000 15:15 18:00 Lat: 38.31989 Lon: 35.91194
7 70,9 km A33135 400 15:15 18:00 Lat: 38.31989 Lon: 35.91194
StartGate(s): 15:15, 15:35, 15:55

# Id Name Nat Glider Sponsor SS ES Time km/h Dist. Dist.
Points
Lead.
Points
Time
Points
Arr.
Pos
Points
Total
1 68 Christian Ciech M ITA Laminar Z9 14.1 15:15:00 16:41:48 01:26:48 44,8 70,94 333,0 92,7 404,3 72,2 902
2 62 Pedro Luis Garcia Morelli M ESP Combat L 13 09 GT 15:15:00 16:42:04 01:27:04 44,6 70,94 333,0 100,9 394,7 66,1 895
3 54 Alessandro Ploner M ITA Laminar Z9 14.1 15:15:00 16:41:53 01:26:53 44,7 70,94 333,0 91,0 399,9 69,1 893
4 53 Elio Cataldi M ITA Litespeed RS 3.5 15:15:00 16:43:57 01:28:57 43,7 70,94 333,0 101,1 365,5 60,4 860
5 23 Justinas Pleikys M LTU T2C 154 15:15:00 16:43:12 01:28:12 44,1 70,94 333,0 86,0 375,2 63,2 857
6 5 Dan Vyhnalik M CZE Combat L 13,5 09 GT 15:15:00 16:46:31 01:31:31 42,5 70,94 333,0 83,9 338,7 57,8 813
7 20 Christian Zehetmair M GER Combat L 13,5 09 GT 15:15:00 16:47:28 01:32:28 42,0 70,94 333,0 81,2 330,2 52,8 797
7 16 Andre Djamarani M GER Combat L 14 09 GT 15:15:00 16:47:21 01:32:21 42,1 70,94 333,0 77,6 331,2 55,2 797
9 48 Manfred Trimmel M AUT T2C 154 15:15:00 16:47:51 01:32:51 41,8 70,94 333,0 78,8 326,9 50,4 789
10 17 Roland Wöhrle M GER Litespeed RS 3.5 Sparkasse, Hasl./Zell, Skyline 15:15:00 16:48:11 01:33:11 41,7 70,94 333,0 81,3 324,1 43,9 782
10 52 Christian Tiefenbacher M AUT T2C 144 15:15:00 16:48:06 01:33:06 41,7 70,94 333,0 76,5 324,8 48,1 782
12 32 Franc Peternel M SLO T2C 144 15:15:00 16:48:07 01:33:07 41,7 70,94 333,0 77,8 324,6 46,0 781
13 18 Gerd Dönhuber M GER Litespeed RS 3.5 Skyline Transport Neiber 15:15:00 16:48:13 01:33:13 41,7 70,94 333,0 79,0 323,8 42,0 778
14 69 Antoine Boisselier M FRA Litespeed RS 3.5 15:15:00 16:49:06 01:34:06 41,3 70,94 333,0 81,8 316,6 38,3 770
15 2 Petr Fiala M CZE Combat L 14 09 15:15:00 16:49:01 01:34:01 41,3 70,94 333,0 74,6 317,2 40,1 765
16 63 Eneko Paez Macias M ESP Litespeed S 3.5 15:15:00 16:49:16 01:34:16 41,2 70,94 333,0 77,8 315,2 36,6 763
17 41 Roberto Nichele M SUI T2C 144 WillsWing Switzerland 15:15:00 16:49:29 01:34:29 41,1 70,94 333,0 78,1 313,5 35,0 760
18 30 Primoz Gricar M SLO Combat L 13,5 09 GT 15:15:00 16:50:05 01:35:05 40,9 70,94 333,0 82,6 308,8 33,4 758
19 33 Stanislav Galovec M SLO Litespeed RS 4 15:15:00 16:50:07 01:35:07 40,8 70,94 333,0 78,0 308,6 32,0 752
20 51 Raimund Kaiser M AUT Laminar Z9 13.7 15:15:00 16:50:13 01:35:13 40,8 70,94 333,0 77,8 307,8 30,6 749
21 31 Alan Sattler M SLO Combat L14 07 LW 15:15:00 16:50:28 01:35:28 40,7 70,94 333,0 72,8 305,9 29,3 741
22 24 Nikola Barakovski M MKD Combat L 13 09 GT 15:15:00 16:50:52 01:35:52 40,5 70,94 333,0 74,8 302,9 28,1 739
23 22 Konrad Schwab M GER Laminar Z9 14.1 15:15:00 16:51:00 01:36:00 40,5 70,94 333,0 76,0 301,9 26,9 738
23 21 Corinna Schwiegershausen F GER Litespeed S 3.5 Red Bull, Adidas, Timezone, 15:15:00 16:51:05 01:36:05 40,4 70,94 333,0 77,5 301,3 25,8 738
25 38 Gijs Wanders M NED T2C 154 15:15:00 16:51:11 01:36:11 40,4 70,94 333,0 74,6 300,6 24,8 733
26 7 Petr Tucek M CZE T2C 144 15:15:00 16:52:18 01:37:18 39,9 70,94 333,0 75,7 292,5 23,8 725
27 96 Béat Howald M SUI T2C 144 15:15:00 16:52:30 01:37:30 39,9 70,94 333,0 70,8 291,1 22,1 717
28 11 Francois Isoard M FRA T2C 144 15:15:00 16:53:18 01:38:18 39,5 70,94 333,0 72,5 285,5 20,6 712
28 65 Daniel Martin Mota M ESP T2C 144 15:15:00 16:52:23 01:37:23 39,9 70,94 333,0 64,2 291,9 22,9 712
30 10 Laurent Thevenot M FRA T2C 144 15:15:00 16:52:36 01:37:36 39,8 70,94 333,0 66,4 290,4 21,3 711
31 58 Anton Moroder M ITA Laminar Z9 13.2 pcs-phoenix 15:15:00 16:54:15 01:39:15 39,1 70,94 333,0 72,6 279,0 18,8 703
32 56 Davide Guiducci M ITA T2C 144 15:15:00 16:54:22 01:39:22 39,1 70,94 333,0 72,4 278,3 18,2 702
32 47 Wolfgang Siess M AUT T2C 154 Gloryfy/Wills Wing 15:15:00 16:54:10 01:39:10 39,2 70,94 333,0 70,1 279,6 19,3 702
34 50 Dietmar Tschabrun M AUT Litespeed S 3.5 15:15:00 16:53:35 01:38:35 39,4 70,94 333,0 64,2 283,6 19,9 701
35 60 Tullio Gervasoni M ITA T2C 144 15:15:00 16:54:32 01:39:32 39,0 70,94 333,0 72,3 277,1 17,8 700
36 36 Arne Tanzer M NED Laminar Z9 14.1 Flying Dutchman 15:15:00 16:55:18 01:40:18 38,7 70,94 333,0 72,6 272,1 16,3 694
37 25 Johnny Nilssen M NOR Litespeed S 4.5 15:15:00 16:54:53 01:39:53 38,9 70,94 333,0 66,6 274,8 17,3 692
38 3 Jan Krofta M CZE T2C 144 15:15:00 16:55:03 01:40:03 38,8 70,94 333,0 67,1 273,7 16,9 691
39 4 Petr Nedoma M CZE Combat L 13,5 09 GT 15:15:00 16:55:06 01:40:06 38,8 70,94 333,0 66,6 273,4 16,6 690
39 12 Fabien Herbreteau M FRA Combat L 13 15:15:00 16:55:25 01:40:25 38,7 70,94 333,0 69,4 271,3 16,0 690
41 1 Alen Milosevic M CRO Combat L 13 07 15:15:00 16:57:30 01:42:30 37,9 70,94 333,0 67,3 258,1 15,7 674
42 61 Blay Olmos Quesada (Jnr) M ESP T2C 144 15:15:00 17:00:24 01:45:24 36,9 70,94 333,0 70,4 240,6 15,5 660
43 40 Fredy Bircher M SUI Litespeed RS 3.5 15:15:00 17:01:03 01:46:03 36,6 70,94 333,0 66,4 236,8 15,1 651
44 55 Paolo Rosichetti M ITA Litespeed RS 3.5 15:15:00 17:00:58 01:45:58 36,7 70,94 333,0 63,1 237,3 15,3 649
45 9 Flemming Lauridsen M DEN Litespeed S 4.5 15:15:00 17:01:40 01:46:40 36,4 70,94 333,0 64,8 233,2 15,0 646
46 67 Jose Iriarte M ESP T2C 144 15:15:00 17:01:50 01:46:50 36,4 70,94 333,0 57,1 232,3 14,8 637
47 19 Stefan Boller M GER Combat L 14 09 GT 15:15:00 17:04:03 01:49:03 35,6 70,94 333,0 64,9 219,8 14,7 632
48 66 Tanno Rutten M NED T2 154 15:35:00 17:28:40 01:53:40 34,2 70,94 333,0 6,4 195,1 14,6 549
49 59 Edoardo Giudiceandrea M ITA T2C 154 15:15:00 17:19:53 02:04:53 31,1 70,94 333,0 55,6 140,3 14,6 544
50 44 Kamil Demikran M TUR Combat L 13 09 GT 15:15:00 17:33:03 02:18:03 28,1 70,94 333,0 7,8 82,5 14,5 438
51 222 Pierre Compte M SUI Combat L 13 15:15:00 69,80 330,3 2,9 333
52 45 Hüseyin Kirişçi M TUR Combat L 13 09 GT 15:15:00 67,76 323,9 324
53 64 Joel Miron de Soto M ESP Combat L 12 07 15:15:00 55,31 274,5 35,9 310
54 34 Matjaz Klemencic M SLO Litespeed RS 3.5 Nokia, Timezone 15:15:00 55,50 275,3 33,0 308
55 35 Joze Frim M SLO Laminar Z9 14.1 15:15:00 52,57 262,1 31,7 294
56 6 Jiri Nadvornik M CZE T2C 144 15:15:00 52,30 260,9 8,1 269
57 46 Tugrul Yilmaz M TUR Combat L 13 09 GT 15:15:00 46,19 226,7 227
58 49 Walter Mayer M AUT Litespeed RS 3.5 15:15:00 35,52 172,0 172
59 57 Suan Selenati M ITA T2C 144 15:15:00 32,83 161,3 161
60 14 Eric Mathurin M FRA Litespeed RS 3.5 15:15:00 32,50 159,8 160
61 39 Balazs Ujhelyi M HUN Moyes Delta Gliders Litespeed 15:35:00 24,32 120,1 120
62 29 Sergei Sukleta M RUS Combat L 13,5 09 GT BelojarskNPP 15:15:00 22,39 109,3 109
63 26 Tormod Helgesen M NOR T2C 154 15:15:00 19,48 92,2 92
64 37 Sander Van Schaik M NED Laminar Z8 14.8 sanderdelta.nl 15:15:00 10,00 45,3 45
64 27 Vegard Hansen M NOR Litespeed RS 4 15:15:00 10,00 45,3 45

Pilots absent from task (ABS)

Id Name
8 Nils ole Dalby

Pilots not yet processed (NYP)

Id Name

Task statistics

param value
ss_distance 64.757
task_distance 70.942
no_of_pilots_present 65
no_of_pilots_flying 65
no_of_pilots_lo 15
no_of_pilots_reaching_nom_dist 50
no_of_pilots_reaching_es 50
no_of_pilots_reaching_goal 50
sum_flown_distance 4124.60300000001
best_dist 70.942
best_time 1.44666666666667
worst_time 2.30083333333333
no_of_pilots_in_competition 66
sum_dist_over_min 3483.606
sum_real_dist_over_min 3483.606
best_real_dist 70.942
first_start_time 2012-09-05T15:15:00+03:00
first_finish_time 2012-09-05T16:41:48+03:00
max_time_to_get_time_points 2.64944123684458
no_of_pilots_with_time_points 50
k 0.769230769230769
arrival_weight 0.0792927856167501
departure_weight 0
leading_weight 0.11100989986345
time_weight 0.444039599453801
distance_weight 0.365657715065999
smallest_leading_coefficient 1.66349147686637
available_points_distance 332.969438113882
available_points_time 404.34430845732
available_points_departure 0
available_points_leading 101.08607711433
available_points_arrival 72.20434079595
time_validity 0.910604164481482
launch_validity 1
distance_validity 1
day_quality 0.910604164481482

Scoring formula settings

param value
id GAP2011
use_distance_points 1
use_time_points 1
use_departure_points 0
use_leading_points 1
use_arrival_position_points 1
use_arrival_time_points 0
min_dist 10
nom_dist 70
nom_time 2
nom_goal 0.3
day_quality 0
time_points_if_not_in_goal 0.8
jump_the_gun_factor 3
jump_the_gun_max 300
use_1000_points_for_max_day_quality 0
normalize_1000_before_day_quality 0
time_validity_based_on_pilot_with_speed_rank 1
bonus_gr 0
no_pilots_in_goal_factor 1
task_stopped_factor 1